Time;durP1;ratioP1;P1;durP2;ratioP2;P2;SDS_P1;SDS_P2;PMS_P1;PMS_P2;Temp;Humidity;BMP_temperature;BMP_pressure;BME280_temperature;BME280_humidity;BME280_pressure;Samples;Min_cycle;Max_cycle;Signal;HPM_P1;HPM_P2
2022/09/22 00:01:04;;;;;;;9.63;3.50;;;7.70;99.90;;;;;;4946264;28;208596;-72
2022/09/22 00:03:32;;;;;;;12.38;3.88;;;7.70;99.90;;;;;;4977626;28;20054;-73
2022/09/22 00:06:01;;;;;;;11.48;3.85;;;7.60;99.90;;;;;;4936992;28;219733;-73
2022/09/22 00:08:30;;;;;;;11.57;3.78;;;7.60;99.90;;;;;;4977848;28;20083;-73
2022/09/22 00:11:07;;;;;;;11.07;3.85;;;7.60;99.90;;;;;;4948389;28;206598;-72
2022/09/22 00:13:35;;;;;;;10.63;3.75;;;7.60;99.90;;;;;;4985191;28;20089;-72
2022/09/22 00:16:02;;;;;;;12.43;3.95;;;7.60;99.90;;;;;;4952080;28;209388;-72
2022/09/22 00:18:28;;;;;;;10.18;4.10;;;7.50;99.90;;;;;;4982273;28;20426;-72
2022/09/22 00:20:55;;;;;;;10.95;3.67;;;7.40;99.90;;;;;;4947544;28;212895;-72
2022/09/22 00:23:25;;;;;;;11.88;3.78;;;7.40;99.90;;;;;;4965707;28;20225;-72
2022/09/22 00:25:52;;;;;;;9.23;3.47;;;7.40;99.90;;;;;;4940082;28;205227;-72
2022/09/22 00:28:19;;;;;;;10.10;3.80;;;7.40;99.90;;;;;;4963232;28;20070;-72
2022/09/22 00:30:45;;;;;;;10.20;3.22;;;7.30;99.90;;;;;;4951623;28;210450;-73
2022/09/22 00:33:12;;;;;;;10.38;3.17;;;7.30;99.90;;;;;;4966098;28;20538;-73
2022/09/22 00:35:38;;;;;;;11.10;3.53;;;7.30;99.90;;;;;;4944987;28;209786;-73
2022/09/22 00:38:05;;;;;;;11.05;3.85;;;7.30;99.90;;;;;;4981283;28;20081;-73
2022/09/22 00:40:32;;;;;;;12.20;4.00;;;7.30;99.90;;;;;;4931234;28;212743;-73
2022/09/22 00:43:22;;;;;;;10.30;3.30;;;7.30;99.90;;;;;;4979784;28;20651;-73
2022/09/22 00:45:54;;;;;;;9.38;3.45;;;7.20;99.90;;;;;;4940063;28;213564;-72
2022/09/22 00:48:22;;;;;;;9.30;3.17;;;7.20;99.90;;;;;;4978226;28;20126;-73
2022/09/22 00:50:52;;;;;;;9.65;3.35;;;7.20;99.90;;;;;;4933233;28;206292;-73
2022/09/22 00:53:21;;;;;;;10.00;3.75;;;7.20;99.90;;;;;;4990757;28;20042;-72
2022/09/22 00:55:53;;;;;;;11.93;3.42;;;7.20;99.90;;;;;;4961795;28;213837;-73
2022/09/22 00:58:22;;;;;;;9.40;3.20;;;7.20;99.90;;;;;;4982396;28;20046;-73
2022/09/22 01:00:48;;;;;;;10.60;3.35;;;7.20;99.90;;;;;;4951673;28;210775;-72
2022/09/22 01:03:18;;;;;;;9.88;3.10;;;7.10;99.90;;;;;;4980565;28;20050;-72
2022/09/22 01:05:47;;;;;;;10.30;3.45;;;7.10;99.90;;;;;;4950965;28;208241;-73
2022/09/22 01:08:15;;;;;;;12.73;3.70;;;7.10;99.90;;;;;;4988691;28;20066;-72
2022/09/22 01:10:42;;;;;;;11.52;3.53;;;7.00;99.90;;;;;;4942868;28;205736;-73
2022/09/22 01:13:37;;;;;;;10.40;3.15;;;7.00;99.90;;;;;;4978764;28;20058;-72
2022/09/22 01:16:22;;;;;;;8.52;3.20;;;7.00;99.90;;;;;;4943287;28;210898;-73
2022/09/22 01:18:48;;;;;;;8.95;3.33;;;7.00;99.90;;;;;;4982060;28;20038;-72
2022/09/22 01:21:32;;;;;;;10.00;3.25;;;6.90;99.90;;;;;;4931822;28;206936;-72
2022/09/22 01:24:36;;;;;;;9.75;3.00;;;6.90;99.90;;;;;;4972892;28;210355;-71
2022/09/22 01:27:14;;;;;;;10.68;3.75;;;6.90;99.90;;;;;;4979266;28;206024;-72
2022/09/22 01:29:43;;;;;;;10.65;3.60;;;6.90;99.90;;;;;;4933777;28;210981;-72
2022/09/22 01:32:37;;;;;;;10.57;3.80;;;6.80;99.90;;;;;;4991637;28;20046;-72
2022/09/22 01:35:26;;;;;;;11.30;3.58;;;6.80;99.90;;;;;;4935528;28;206341;-72
2022/09/22 01:38:15;;;;;;;12.50;3.83;;;6.80;99.90;;;;;;4987250;28;20419;-73
2022/09/22 01:41:06;;;;;;;10.88;3.40;;;6.80;99.90;;;;;;4935514;28;206113;-72
2022/09/22 01:43:38;;;;;;;9.65;3.30;;;6.70;99.90;;;;;;4977459;28;20654;-73
2022/09/22 01:46:11;;;;;;;10.77;3.60;;;6.70;99.90;;;;;;4953454;28;211134;-72
2022/09/22 01:48:40;;;;;;;11.85;3.53;;;6.70;99.90;;;;;;4982044;28;20058;-72
2022/09/22 01:51:18;;;;;;;9.68;3.17;;;6.70;99.90;;;;;;4937575;28;209657;-72
2022/09/22 01:53:57;;;;;;;9.10;3.50;;;6.70;99.90;;;;;;4979936;28;20714;-72
2022/09/22 01:56:26;;;;;;;12.93;3.10;;;6.70;99.90;;;;;;4917427;28;209506;-72
2022/09/22 01:58:56;;;;;;;11.25;3.40;;;6.60;99.90;;;;;;4963863;28;20055;-72
2022/09/22 02:01:31;;;;;;;8.90;3.17;;;6.60;99.90;;;;;;4921991;28;206837;-72
2022/09/22 02:04:01;;;;;;;12.73;3.20;;;6.50;99.90;;;;;;4963876;28;209782;-72
2022/09/22 02:07:03;;;;;;;10.23;2.70;;;6.50;99.90;;;;;;4963470;28;207007;-72
2022/09/22 02:09:33;;;;;;;9.10;2.97;;;6.50;99.90;;;;;;4937169;28;213054;-72
2022/09/22 02:12:00;;;;;;;9.95;3.20;;;6.40;99.90;;;;;;4989786;28;20054;-72
2022/09/22 02:14:27;;;;;;;11.10;3.70;;;6.40;99.90;;;;;;4939940;28;215767;-72
2022/09/22 02:16:53;;;;;;;10.00;3.10;;;6.40;99.90;;;;;;4994519;28;20038;-72
2022/09/22 02:19:27;;;;;;;8.57;3.35;;;6.40;99.90;;;;;;4942328;28;206408;-72
2022/09/22 02:21:53;;;;;;;10.32;3.55;;;6.40;99.90;;;;;;4981156;28;20035;-72
2022/09/22 02:24:30;;;;;;;13.13;3.70;;;6.40;99.90;;;;;;4937042;28;224602;-72
2022/09/22 02:26:57;;;;;;;10.30;3.22;;;6.40;99.90;;;;;;4978257;28;20046;-72
2022/09/22 02:29:28;;;;;;;10.43;2.95;;;6.30;99.90;;;;;;4930867;28;212862;-72
2022/09/22 02:31:56;;;;;;;8.02;2.95;;;6.30;99.90;;;;;;4969113;28;20058;-72
2022/09/22 02:34:23;;;;;;;11.98;3.38;;;6.30;99.90;;;;;;4943568;28;211613;-73
2022/09/22 02:36:57;;;;;;;7.88;2.80;;;6.30;99.90;;;;;;4981641;28;20054;-73
2022/09/22 02:39:48;;;;;;;10.10;3.30;;;6.20;99.90;;;;;;4937965;28;218286;-73
2022/09/22 02:42:26;;;;;;;11.85;3.42;;;6.20;99.90;;;;;;4972440;28;20055;-72
2022/09/22 02:45:06;;;;;;;9.73;3.35;;;6.20;99.90;;;;;;4929763;28;210817;-73
2022/09/22 02:47:41;;;;;;;9.20;3.13;;;6.20;99.90;;;;;;4972727;28;20065;-72
2022/09/22 02:50:11;;;;;;;10.48;3.35;;;6.20;99.90;;;;;;4944679;28;209097;-72
2022/09/22 02:52:38;;;;;;;9.07;3.55;;;6.20;99.90;;;;;;4980950;28;20054;-72
2022/09/22 02:55:06;;;;;;;9.02;2.85;;;6.20;99.90;;;;;;4949452;28;209683;-72
2022/09/22 02:57:32;;;;;;;10.52;3.00;;;6.20;99.90;;;;;;4987810;28;20058;-72
2022/09/22 02:59:58;;;;;;;8.45;2.97;;;6.10;99.90;;;;;;4944345;28;211741;-72
2022/09/22 03:02:24;;;;;;;9.45;3.00;;;6.10;99.90;;;;;;4985274;28;20058;-73
2022/09/22 03:04:51;;;;;;;8.98;3.10;;;6.00;99.90;;;;;;4957857;28;89513;-72
2022/09/22 03:07:18;;;;;;;10.73;3.03;;;6.00;99.90;;;;;;4983906;28;20047;-73
2022/09/22 03:09:44;;;;;;;9.95;3.28;;;6.00;99.90;;;;;;4937928;28;205898;-72
2022/09/22 03:12:10;;;;;;;8.05;2.85;;;5.90;99.90;;;;;;4975111;28;20042;-72
2022/09/22 03:14:36;;;;;;;10.50;3.80;;;5.90;99.90;;;;;;4938533;28;212080;-72
2022/09/22 03:17:02;;;;;;;10.02;3.10;;;5.90;99.90;;;;;;4990764;28;20054;-72
2022/09/22 03:19:29;;;;;;;10.65;3.30;;;5.90;99.90;;;;;;4931064;28;205168;-72
2022/09/22 03:21:55;;;;;;;8.05;3.03;;;5.80;99.90;;;;;;4974448;28;20061;-72
2022/09/22 03:24:21;;;;;;;8.13;2.85;;;5.90;99.90;;;;;;4938152;28;209518;-72
2022/09/22 03:26:47;;;;;;;8.27;3.03;;;5.80;99.90;;;;;;4999810;28;20414;-72
2022/09/22 03:29:13;;;;;;;9.02;3.00;;;5.80;99.90;;;;;;4944968;28;210255;-72
2022/09/22 03:31:39;;;;;;;10.00;3.03;;;5.80;99.90;;;;;;4997207;28;20396;-72
2022/09/22 03:34:06;;;;;;;8.25;2.78;;;5.80;99.90;;;;;;4934955;28;214892;-73
2022/09/22 03:36:32;;;;;;;11.10;3.10;;;5.70;99.90;;;;;;4982659;28;20061;-71
2022/09/22 03:38:58;;;;;;;9.55;2.90;;;5.80;99.90;;;;;;4975100;28;210776;-72
2022/09/22 03:41:25;;;;;;;10.45;3.28;;;5.70;99.90;;;;;;4938622;28;206517;-72
2022/09/22 03:43:51;;;;;;;11.52;3.33;;;5.70;99.90;;;;;;4980502;28;20045;-73
2022/09/22 03:46:17;;;;;;;12.77;3.70;;;5.70;99.90;;;;;;4927864;28;215786;-72
2022/09/22 03:48:44;;;;;;;9.90;4.00;;;5.70;99.90;;;;;;4985192;28;20508;-72
2022/09/22 03:51:10;;;;;;;10.70;4.40;;;5.70;99.90;;;;;;4931865;28;177013;-72
2022/09/22 03:53:36;;;;;;;14.20;4.28;;;5.70;99.90;;;;;;4983534;28;20051;-72
2022/09/22 03:56:07;;;;;;;10.20;4.50;;;5.70;99.90;;;;;;4927727;28;205490;-72
2022/09/22 03:58:35;;;;;;;;;;;5.80;99.90;;;;;;4987436;28;20058;-72
2022/09/22 04:01:01;;;;;;;11.45;4.20;;;5.80;99.90;;;;;;4947651;28;210460;-72
2022/09/22 04:03:27;;;;;;;10.35;4.05;;;5.80;99.90;;;;;;4977506;28;20428;-71
2022/09/22 04:05:54;;;;;;;9.38;3.80;;;5.70;99.90;;;;;;4948497;28;210254;-71
2022/09/22 04:08:20;;;;;;;10.60;3.95;;;5.70;99.90;;;;;;4980441;28;20054;-71
2022/09/22 04:10:46;;;;;;;11.07;3.85;;;5.70;99.90;;;;;;4933965;28;209302;-71
2022/09/22 04:13:13;;;;;;;9.63;3.90;;;5.70;99.90;;;;;;4993501;28;20051;-71
2022/09/22 04:15:40;;;;;;;14.00;4.38;;;5.70;99.90;;;;;;4956339;28;210560;-71
2022/09/22 04:18:11;;;;;;;11.85;4.30;;;5.60;99.90;;;;;;4987857;28;20054;-71
2022/09/22 04:20:42;;;;;;;12.43;4.30;;;5.60;99.90;;;;;;4948474;28;227365;-71
2022/09/22 04:23:10;;;;;;;12.05;5.25;;;5.60;99.90;;;;;;4985517;28;20050;-72
2022/09/22 04:25:36;;;;;;;12.95;4.70;;;5.60;99.90;;;;;;4959471;28;213154;-72
2022/09/22 04:28:03;;;;;;;14.23;5.38;;;5.60;99.90;;;;;;4989107;28;20046;-73
2022/09/22 04:30:30;;;;;;;12.70;5.40;;;5.60;99.90;;;;;;4944203;28;207918;-71
2022/09/22 04:32:58;;;;;;;12.00;5.05;;;5.60;99.90;;;;;;4986929;28;20393;-72
2022/09/22 04:35:27;;;;;;;10.27;5.05;;;5.70;99.90;;;;;;4942281;28;210655;-72
2022/09/22 04:37:54;;;;;;;10.27;4.88;;;5.70;99.90;;;;;;4985609;28;20058;-71
2022/09/22 04:40:21;;;;;;;11.68;4.90;;;5.70;99.90;;;;;;4951513;28;209296;-72
2022/09/22 04:42:48;;;;;;;11.63;4.88;;;5.70;99.90;;;;;;4983341;28;20054;-71
2022/09/22 04:45:15;;;;;;;12.15;4.75;;;5.70;99.90;;;;;;4918293;28;217563;-72
2022/09/22 04:47:46;;;;;;;16.90;5.95;;;5.60;99.90;;;;;;4958518;28;20420;-72
2022/09/22 04:50:13;;;;;;;18.52;6.78;;;5.60;99.90;;;;;;4926172;28;209456;-72
2022/09/22 04:52:44;;;;;;;15.43;5.70;;;5.70;99.90;;;;;;4957210;28;20058;-73
2022/09/22 04:55:10;;;;;;;14.57;5.72;;;5.70;99.90;;;;;;4928941;28;220836;-71
2022/09/22 04:57:36;;;;;;;12.80;5.25;;;5.70;99.90;;;;;;4964782;28;20055;-71
2022/09/22 05:00:04;;;;;;;13.13;5.43;;;5.70;99.90;;;;;;4887432;28;229428;-71
2022/09/22 05:02:30;;;;;;;12.50;6.82;;;5.70;99.90;;;;;;4947025;28;20069;-72
2022/09/22 05:04:56;;;;;;;14.73;6.85;;;5.60;99.90;;;;;;4925984;28;205314;-72
2022/09/22 05:07:22;;;;;;;13.82;6.72;;;5.60;99.90;;;;;;4969001;28;20055;-72
2022/09/22 05:09:48;;;;;;;12.27;6.55;;;5.60;99.90;;;;;;4917789;28;214046;-72
2022/09/22 05:12:14;;;;;;;10.90;5.57;;;5.60;99.90;;;;;;4959544;28;20066;-72
2022/09/22 05:14:41;;;;;;;14.50;5.85;;;5.60;99.90;;;;;;4919549;28;213778;-72
2022/09/22 05:17:07;;;;;;;16.55;6.72;;;5.60;99.90;;;;;;4987927;28;20042;-71
2022/09/22 05:19:33;;;;;;;14.30;6.63;;;5.50;99.90;;;;;;4935339;28;233005;-72
2022/09/22 05:21:59;;;;;;;14.05;6.93;;;5.50;99.90;;;;;;4991678;28;20054;-72
2022/09/22 05:24:26;;;;;;;13.82;6.60;;;5.50;99.90;;;;;;4935864;28;209843;-72
2022/09/22 05:26:52;;;;;;;15.10;7.15;;;5.50;99.90;;;;;;4993046;28;20054;-72
2022/09/22 05:29:19;;;;;;;12.47;6.63;;;5.50;99.90;;;;;;4937830;28;259771;-72
2022/09/22 05:31:45;;;;;;;14.82;7.45;;;5.50;99.90;;;;;;4997632;28;20054;-72
2022/09/22 05:34:11;;;;;;;16.10;6.82;;;5.60;99.90;;;;;;4941292;28;210226;-72
2022/09/22 05:36:37;;;;;;;13.57;7.70;;;5.60;99.90;;;;;;4977655;28;20065;-72
2022/09/22 05:39:04;;;;;;;13.33;7.50;;;5.60;99.90;;;;;;4934706;28;214580;-72
2022/09/22 05:41:30;;;;;;;12.32;6.85;;;5.60;99.90;;;;;;4981092;28;20046;-72
2022/09/22 05:43:56;;;;;;;14.80;8.00;;;5.60;99.90;;;;;;4970706;28;253818;-70
2022/09/22 05:46:22;;;;;;;13.65;7.93;;;5.60;99.90;;;;;;4942273;28;131595;-72
2022/09/22 05:48:48;;;;;;;16.90;9.95;;;5.60;99.90;;;;;;4984492;28;20065;-72
2022/09/22 05:51:14;;;;;;;13.93;8.25;;;5.60;99.90;;;;;;4926944;28;212471;-72
2022/09/22 05:53:40;;;;;;;16.17;8.25;;;5.60;99.90;;;;;;4977465;28;20061;-73
2022/09/22 05:56:06;;;;;;;16.20;8.10;;;5.60;99.90;;;;;;4951062;28;209373;-73
2022/09/22 05:58:33;;;;;;;16.17;8.73;;;5.60;99.90;;;;;;4975589;28;20062;-71
2022/09/22 06:00:59;;;;;;;15.32;8.23;;;5.60;99.90;;;;;;4936152;28;207812;-72
2022/09/22 06:03:25;;;;;;;14.63;8.20;;;5.60;99.90;;;;;;4978310;28;20558;-73
2022/09/22 06:05:51;;;;;;;14.50;8.93;;;5.70;99.90;;;;;;4949855;28;205907;-73
2022/09/22 06:08:17;;;;;;;15.40;8.60;;;5.70;99.90;;;;;;4977547;28;20058;-71
2022/09/22 06:10:49;;;;;;;14.13;8.90;;;5.70;99.90;;;;;;4939985;28;209067;-72
2022/09/22 06:13:16;;;;;;;16.42;10.60;;;5.70;99.90;;;;;;4980631;28;20054;-73
2022/09/22 06:15:47;;;;;;;18.85;11.95;;;5.80;99.90;;;;;;4940676;28;209149;-73
2022/09/22 06:18:16;;;;;;;18.67;12.25;;;5.80;99.90;;;;;;4975592;28;20062;-73
2022/09/22 06:20:43;;;;;;;18.35;12.05;;;5.90;99.90;;;;;;4928287;28;210916;-72
2022/09/22 06:23:12;;;;;;;22.95;14.52;;;6.00;99.90;;;;;;4972281;28;20051;-73
2022/09/22 06:25:38;;;;;;;16.08;12.00;;;6.00;99.90;;;;;;4943649;28;209657;-73
2022/09/22 06:28:06;;;;;;;20.67;14.63;;;6.10;99.90;;;;;;4978197;28;20057;-73
2022/09/22 06:30:34;;;;;;;26.48;15.18;;;6.20;99.90;;;;;;4947064;28;209127;-72
2022/09/22 06:33:00;;;;;;;20.98;13.57;;;6.30;99.90;;;;;;4977308;28;20050;-72
2022/09/22 06:35:34;;;;;;;21.30;15.43;;;6.30;99.90;;;;;;4936056;28;206613;-71
2022/09/22 06:38:00;;;;;;;19.52;14.25;;;6.40;99.90;;;;;;4983980;28;20057;-72
2022/09/22 06:40:28;;;;;;;21.13;15.95;;;6.50;99.90;;;;;;4942485;28;210178;-73
2022/09/22 06:42:58;;;;;;;22.80;16.65;;;6.50;99.90;;;;;;4973441;28;20051;-72
2022/09/22 06:45:25;;;;;;;24.15;16.60;;;6.60;99.90;;;;;;4940135;28;209639;-72
2022/09/22 06:47:57;;;;;;;22.38;17.00;;;6.80;99.90;;;;;;4975140;28;20078;-72
2022/09/22 06:50:25;;;;;;;24.27;17.38;;;6.90;99.90;;;;;;4929746;28;207087;-72
2022/09/22 06:52:59;;;;;;;23.90;17.20;;;7.00;99.90;;;;;;4977522;28;20046;-72
2022/09/22 06:55:29;;;;;;;20.48;15.73;;;7.10;99.90;;;;;;4933528;28;212917;-72
2022/09/22 06:58:00;;;;;;;25.77;18.30;;;7.10;99.90;;;;;;4971793;28;20050;-72
2022/09/22 07:00:31;;;;;;;27.75;17.83;;;7.20;99.90;;;;;;4938526;28;205483;-72
2022/09/22 07:03:19;;;;;;;26.48;18.65;;;7.30;99.90;;;;;;4996592;28;20046;-72
2022/09/22 07:05:57;;;;;;;26.80;20.42;;;7.40;99.90;;;;;;4945289;28;208299;-73
2022/09/22 07:08:23;;;;;;;21.70;17.60;;;7.50;99.90;;;;;;4985905;28;20054;-73
2022/09/22 07:11:06;;;;;;;24.25;19.00;;;7.60;99.90;;;;;;4949830;28;214856;-73
2022/09/22 07:13:37;;;;;;;23.58;17.55;;;7.70;99.90;;;;;;4986533;28;20073;-73
2022/09/22 07:16:08;;;;;;;23.50;18.75;;;7.80;99.90;;;;;;4952266;28;209010;-73
2022/09/22 07:18:43;;;;;;;24.13;17.77;;;7.90;99.90;;;;;;4982519;28;20058;-73
2022/09/22 07:21:12;;;;;;;25.40;18.23;;;8.00;99.90;;;;;;4948539;28;174567;-73
2022/09/22 07:23:39;;;;;;;26.27;17.65;;;8.10;99.90;;;;;;4978566;28;20133;-73
2022/09/22 07:26:09;;;;;;;22.20;17.17;;;8.10;99.90;;;;;;4910718;28;213198;-73
2022/09/22 07:28:35;;;;;;;24.25;18.67;;;8.20;99.90;;;;;;4976083;28;20064;-73
2022/09/22 07:31:06;;;;;;;21.33;15.93;;;8.30;99.90;;;;;;4923862;28;207249;-73
2022/09/22 07:33:34;;;;;;;27.20;16.95;;;8.40;99.90;;;;;;4974438;28;20081;-73
2022/09/22 07:36:07;;;;;;;23.17;15.15;;;8.40;99.90;;;;;;4946648;28;207493;-73
2022/09/22 07:38:38;;;;;;;22.05;13.70;;;8.60;99.90;;;;;;5000131;28;20062;-73
2022/09/22 07:41:10;;;;;;;20.87;14.57;;;8.60;99.90;;;;;;4961722;28;208357;-73
2022/09/22 07:43:38;;;;;;;21.13;14.90;;;8.70;99.90;;;;;;4983767;28;20058;-72
2022/09/22 07:46:04;;;;;;;21.67;14.00;;;8.90;99.90;;;;;;4924019;28;207333;-72
2022/09/22 07:48:41;;;;;;;19.13;13.10;;;9.10;99.90;;;;;;4982133;28;20055;-73
2022/09/22 07:51:20;;;;;;;19.60;13.73;;;9.50;99.90;;;;;;4936731;28;208321;-73
2022/09/22 07:53:56;;;;;;;17.50;11.13;;;10.30;99.90;;;;;;4981204;28;20053;-72
2022/09/22 07:56:26;;;;;;;15.57;9.25;;;11.20;99.90;;;;;;4937026;28;174333;-72
2022/09/22 07:58:53;;;;;;;16.58;9.15;;;12.20;99.90;;;;;;4976576;28;20057;-73
2022/09/22 08:01:21;;;;;;;14.52;8.02;;;12.90;99.90;;;;;;4914234;28;206186;-72
2022/09/22 08:03:47;;;;;;;12.73;7.15;;;12.80;99.90;;;;;;4977333;28;20519;-73
2022/09/22 08:06:17;;;;;;;17.90;7.15;;;12.70;99.90;;;;;;4957142;28;201592;-73
2022/09/22 08:08:46;;;;;;;15.88;8.43;;;13.20;99.90;;;;;;4983523;28;20911;-73
2022/09/22 08:11:16;;;;;;;14.00;6.00;;;14.10;99.90;;;;;;4958673;28;210737;-73
2022/09/22 08:13:54;;;;;;;11.05;5.60;;;14.70;99.90;;;;;;4975968;28;20594;-73
2022/09/22 08:16:21;;;;;;;11.23;5.60;;;15.20;99.90;;;;;;4920700;28;206599;-73
2022/09/22 08:18:55;;;;;;;9.48;5.20;;;15.80;99.90;;;;;;4979103;28;20495;-73
2022/09/22 08:21:23;;;;;;;13.52;5.20;;;16.50;99.90;;;;;;4916693;28;208613;-73
2022/09/22 08:23:51;;;;;;;10.07;5.22;;;17.20;99.90;;;;;;4961643;28;20050;-73
2022/09/22 08:26:17;;;;;;;10.20;4.53;;;17.60;99.90;;;;;;4922580;28;215194;-71
2022/09/22 08:28:44;;;;;;;11.80;4.57;;;18.00;99.90;;;;;;4961564;28;20070;-72
2022/09/22 08:31:14;;;;;;;11.23;4.32;;;18.20;99.90;;;;;;4902939;28;207588;-72
2022/09/22 08:33:41;;;;;;;14.25;4.60;;;18.60;99.90;;;;;;4960064;28;20054;-71
2022/09/22 08:36:09;;;;;;;11.07;4.20;;;19.00;99.90;;;;;;4926511;28;213615;-72
2022/09/22 08:38:36;;;;;;;9.43;4.13;;;19.40;99.90;;;;;;4954476;28;20066;-72
2022/09/22 08:41:17;;;;;;;9.30;3.35;;;19.80;99.90;;;;;;4940080;28;224562;-72
2022/09/22 08:43:54;;;;;;;10.85;3.20;;;20.10;99.90;;;;;;4976065;28;20054;-72
2022/09/22 08:46:28;;;;;;;8.48;2.83;;;20.20;99.90;;;;;;4923308;28;211024;-72
2022/09/22 08:52:21;;;;;;;9.52;2.53;;;20.80;99.90;;;;;;4931570;28;206247;-72
2022/09/22 08:54:48;;;;;;;9.55;3.10;;;21.30;99.90;;;;;;4916921;28;210180;-72
2022/09/22 08:57:43;;;;;;;10.88;3.30;;;21.60;99.90;;;;;;4966520;28;20507;-72
2022/09/22 09:00:09;;;;;;;8.10;2.70;;;21.70;96.70;;;;;;4944357;28;216231;-72
2022/09/22 09:02:39;;;;;;;9.90;2.78;;;21.60;97.50;;;;;;4974873;28;20046;-72
2022/09/22 09:05:27;;;;;;;9.07;2.78;;;21.40;96.60;;;;;;4934706;28;210981;-72
2022/09/22 09:08:31;;;;;;;9.32;2.50;;;21.40;92.60;;;;;;4983954;28;20835;-72
2022/09/22 09:11:13;;;;;;;10.40;2.13;;;21.50;95.40;;;;;;4948685;28;209643;-71
2022/09/22 09:14:03;;;;;;;8.25;2.20;;;21.80;94.50;;;;;;4981550;28;20065;-72
2022/09/22 09:16:50;;;;;;;9.23;2.40;;;21.80;92.30;;;;;;4934694;28;206915;-72
2022/09/22 09:19:31;;;;;;;8.82;2.42;;;21.80;93.00;;;;;;4935147;28;215854;-72
2022/09/22 09:22:00;;;;;;;;;;;22.10;93.10;;;;;;4990508;28;20066;-72
2022/09/22 09:24:35;;;;;;;8.80;2.40;;;22.10;89.10;;;;;;4933579;28;207216;-72
2022/09/22 09:27:12;;;;;;;10.63;2.45;;;22.20;91.90;;;;;;4979795;28;20058;-72
2022/09/22 09:29:53;;;;;;;6.85;2.03;;;22.10;86.60;;;;;;4932559;28;209440;-72
2022/09/22 09:32:35;;;;;;;11.02;2.22;;;22.30;91.20;;;;;;4974105;28;20061;-72
2022/09/22 09:35:01;;;;;;;7.65;2.00;;;22.50;90.60;;;;;;4933960;28;213297;-72
2022/09/22 09:37:28;;;;;;;9.70;2.20;;;22.90;91.00;;;;;;4982681;28;20043;-72
2022/09/22 09:39:55;;;;;;;8.80;2.10;;;23.30;90.20;;;;;;4950974;28;210306;-71
2022/09/22 09:42:24;;;;;;;9.93;2.17;;;23.40;86.20;;;;;;4988895;28;20090;-71
2022/09/22 09:44:52;;;;;;;9.57;2.28;;;23.20;86.20;;;;;;4941424;28;209581;-72
2022/09/22 09:47:54;;;;;;;9.10;2.30;;;23.50;87.20;;;;;;4989459;28;20050;-72
2022/09/22 09:50:22;;;;;;;8.60;2.10;;;23.70;84.10;;;;;;4919871;28;210483;-72
2022/09/22 09:52:49;;;;;;;7.93;2.30;;;23.90;84.60;;;;;;4979607;28;20845;-72
2022/09/22 09:55:20;;;;;;;7.95;1.70;;;24.10;85.30;;;;;;4934831;28;206449;-72
2022/09/22 09:58:11;;;;;;;9.18;2.08;;;24.50;83.70;;;;;;4980106;28;20511;-72
2022/09/22 10:01:00;;;;;;;9.05;1.80;;;25.10;82.60;;;;;;4929579;28;212718;-72
2022/09/22 10:03:32;;;;;;;7.25;1.83;;;25.40;80.80;;;;;;4882831;29;20048;-72
2022/09/22 10:06:03;;;;;;;9.60;2.38;;;25.70;77.70;;;;;;4818276;29;101934;-72
2022/09/22 10:08:33;;;;;;;;;;;25.80;79.00;;;;;;4865174;29;20063;-72
2022/09/22 10:11:00;;;;;;;10.75;2.20;;;25.50;72.30;;;;;;4825266;29;206691;-72
2022/09/22 10:13:33;;;;;;;8.68;2.30;;;25.70;79.60;;;;;;4884417;29;20070;-72
2022/09/22 10:16:23;;;;;;;11.55;2.17;;;26.20;75.00;;;;;;4834966;29;213248;-72
2022/09/22 10:19:03;;;;;;;9.52;2.05;;;26.60;74.00;;;;;;4882421;29;20507;-72
2022/09/22 10:21:29;;;;;;;8.73;2.28;;;26.90;73.60;;;;;;4826375;29;207105;-72
2022/09/22 10:23:58;;;;;;;8.20;1.90;;;27.00;74.10;;;;;;4885456;29;20056;-72
2022/09/22 10:26:25;;;;;;;9.13;1.92;;;27.00;72.80;;;;;;4826750;29;207146;-72
2022/09/22 10:29:17;;;;;;;9.57;2.72;;;26.90;71.40;;;;;;4848747;29;20062;-72
2022/09/22 10:32:04;;;;;;;10.07;2.72;;;26.70;64.50;;;;;;4818274;29;205766;-71
2022/09/22 10:34:59;;;;;;;10.13;3.00;;;26.40;67.50;;;;;;4822285;29;206643;-71
2022/09/22 10:37:29;;;;;;;9.43;2.65;;;26.30;66.30;;;;;;4857179;29;20068;-72
2022/09/22 10:40:02;;;;;;;9.50;2.75;;;26.20;67.20;;;;;;4829677;29;207437;-71
2022/09/22 10:42:42;;;;;;;9.38;3.00;;;26.30;67.20;;;;;;4911410;29;20044;-70
2022/09/22 10:45:26;;;;;;;9.20;3.00;;;26.40;65.40;;;;;;4869114;29;208821;-71
2022/09/22 10:47:58;;;;;;;10.85;3.20;;;26.80;67.20;;;;;;4918611;29;20055;-71
2022/09/22 10:50:30;;;;;;;11.63;3.15;;;26.90;64.40;;;;;;4878264;29;206894;-71
2022/09/22 10:52:59;;;;;;;9.88;3.05;;;26.80;63.30;;;;;;4918129;29;20051;-71
2022/09/22 10:55:30;;;;;;;12.05;3.10;;;26.10;63.50;;;;;;4895999;29;118766;-71
2022/09/22 10:58:03;;;;;;;9.48;3.00;;;26.30;65.70;;;;;;4922675;29;20047;-72
2022/09/22 11:00:36;;;;;;;10.45;3.08;;;26.70;65.50;;;;;;4876550;29;214431;-72
2022/09/22 11:03:43;;;;;;;8.98;3.20;;;26.50;65.00;;;;;;4921081;29;20067;-71
2022/09/22 11:12:41;;;;;;;10.52;3.85;;;23.40;64.70;;;;;;4926956;29;20058;-71
2022/09/22 11:15:18;;;;;;;10.68;4.10;;;22.90;63.50;;;;;;4937139;28;206480;-70
2022/09/22 11:18:00;;;;;;;10.00;3.97;;;22.20;64.00;;;;;;4990266;28;20050;-70
2022/09/22 11:20:50;;;;;;;7.90;3.30;;;21.60;64.10;;;;;;4948417;28;209201;-70
2022/09/22 11:23:21;;;;;;;9.43;3.97;;;21.10;65.50;;;;;;4980472;28;20069;-70
2022/09/22 11:26:10;;;;;;;11.48;4.00;;;20.80;66.90;;;;;;4941861;28;207007;-70
2022/09/22 11:28:50;;;;;;;10.93;4.13;;;20.80;68.10;;;;;;4986308;28;20049;-70
2022/09/22 11:31:38;;;;;;;10.17;3.90;;;21.70;69.10;;;;;;4949281;28;209911;-71
2022/09/22 11:34:29;;;;;;;8.63;3.55;;;22.80;66.50;;;;;;4942528;28;212445;-70
2022/09/22 11:37:25;;;;;;;;;;;23.80;67.10;;;;;;4978897;28;20058;-71
2022/09/22 11:40:16;;;;;;;10.43;3.42;;;24.50;66.60;;;;;;4941660;28;209773;-71
2022/09/22 11:42:54;;;;;;;8.80;3.78;;;25.20;62.50;;;;;;4981151;28;20085;-72
2022/09/22 11:45:22;;;;;;;10.35;3.60;;;25.10;63.50;;;;;;4955491;28;209147;-71
2022/09/22 11:48:04;;;;;;;9.98;3.70;;;23.50;61.90;;;;;;4985945;28;20799;-71
2022/09/22 11:50:47;;;;;;;9.23;3.28;;;22.70;64.30;;;;;;4946228;28;208189;-71
2022/09/22 11:53:22;;;;;;;10.68;4.00;;;22.20;65.00;;;;;;4984181;28;20054;-72
2022/09/22 11:56:09;;;;;;;10.77;3.88;;;21.80;64.90;;;;;;4939488;28;206168;-71
2022/09/22 11:58:39;;;;;;;11.77;4.03;;;21.40;65.60;;;;;;4985381;28;20054;-71
2022/09/22 12:01:13;;;;;;;12.05;4.32;;;21.20;66.00;;;;;;4927823;28;215491;-71
2022/09/22 12:04:19;;;;;;;12.45;4.28;;;21.10;66.40;;;;;;4981202;28;20058;-71
2022/09/22 12:06:50;;;;;;;10.38;4.35;;;21.30;66.60;;;;;;4894370;28;206200;-71
2022/09/22 12:09:32;;;;;;;10.88;4.18;;;21.80;65.80;;;;;;4884844;28;207138;-71
2022/09/22 12:12:01;;;;;;;11.65;4.05;;;21.80;67.00;;;;;;4927717;28;20059;-72
2022/09/22 12:14:27;;;;;;;12.82;4.10;;;21.70;66.30;;;;;;4898969;28;205351;-71
2022/09/22 12:16:57;;;;;;;11.02;4.53;;;22.30;66.60;;;;;;4932974;29;20070;-72
2022/09/22 12:19:33;;;;;;;10.93;4.10;;;23.20;67.70;;;;;;4895857;28;206458;-72
2022/09/22 12:22:33;;;;;;;12.38;4.20;;;24.10;66.30;;;;;;4937171;28;20050;-72
2022/09/22 12:25:00;;;;;;;11.45;4.32;;;25.00;63.90;;;;;;4889680;28;209799;-73
2022/09/22 12:27:28;;;;;;;12.38;3.90;;;25.10;62.60;;;;;;4938251;29;20058;-72
2022/09/22 12:30:04;;;;;;;10.20;3.85;;;25.10;59.40;;;;;;4894254;28;207991;-72
2022/09/22 12:32:35;;;;;;;11.45;3.95;;;24.90;62.30;;;;;;4936199;28;20062;-72
2022/09/22 12:35:03;;;;;;;11.00;4.25;;;25.10;63.20;;;;;;4879479;29;207647;-72
2022/09/22 12:37:37;;;;;;;10.15;4.13;;;24.90;61.30;;;;;;4916398;29;20055;-72
2022/09/22 12:40:17;;;;;;;9.50;3.97;;;24.30;58.10;;;;;;4872659;29;210053;-72
2022/09/22 12:42:48;;;;;;;11.70;4.18;;;23.90;62.10;;;;;;4941942;28;20444;-71
2022/09/22 12:45:30;;;;;;;11.35;4.30;;;23.40;62.10;;;;;;4931968;28;209884;-72
2022/09/22 12:47:59;;;;;;;9.75;3.53;;;23.20;62.50;;;;;;4982737;28;20839;-73
2022/09/22 12:50:38;;;;;;;10.73;3.75;;;23.90;61.90;;;;;;4944845;28;215357;-73
2022/09/22 12:53:11;;;;;;;10.82;3.90;;;24.20;62.80;;;;;;4982518;28;20057;-73
2022/09/22 12:55:37;;;;;;;10.82;3.80;;;24.80;62.10;;;;;;4931055;28;205801;-73
2022/09/22 12:58:26;;;;;;;11.38;3.85;;;25.40;63.10;;;;;;4982558;28;20066;-73
2022/09/22 13:00:55;;;;;;;11.13;3.63;;;26.20;59.90;;;;;;4943515;28;208912;-73
2022/09/22 13:03:24;;;;;;;14.50;4.22;;;26.50;57.60;;;;;;4980113;28;20061;-73
2022/09/22 13:05:53;;;;;;;9.35;3.40;;;26.20;58.10;;;;;;4945599;28;212095;-73
2022/09/22 13:08:31;;;;;;;11.13;4.05;;;25.90;59.30;;;;;;4981344;28;20054;-73
2022/09/22 13:11:02;;;;;;;10.20;3.50;;;25.80;57.10;;;;;;4934929;28;205430;-72
2022/09/22 13:13:29;;;;;;;11.23;3.45;;;25.90;58.90;;;;;;4995807;28;20058;-71
2022/09/22 13:16:01;;;;;;;9.77;3.45;;;26.30;61.10;;;;;;4924444;28;209092;-71